Time;durP1;ratioP1;P1;durP2;ratioP2;P2;SDS_P1;SDS_P2;PMS_P1;PMS_P2;Temp;Humidity;BMP_temperature;BMP_pressure;BME280_temperature;BME280_humidity;BME280_pressure;Samples;Min_cycle;Max_cycle;Signal;HPM_P1;HPM_P2
2022/04/13 00:00:27;;;;;;;6.93;6.10;;;;;;;-143.37;100.00;62585.38;5074661;28;20923;-74
2022/04/13 00:03:03;;;;;;;8.27;5.73;;;;;;;-143.37;100.00;62585.38;5038442;28;20544;-74
2022/04/13 00:05:38;;;;;;;8.50;5.67;;;;;;;-143.37;100.00;62585.38;5047379;28;20442;-75
2022/04/13 00:08:14;;;;;;;7.07;5.37;;;;;;;-143.37;100.00;62585.38;5049003;28;20473;-74
2022/04/13 00:10:51;;;;;;;7.27;6.10;;;;;;;-143.37;100.00;62585.38;5037300;28;20436;-74
2022/04/13 00:13:26;;;;;;;7.33;4.90;;;;;;;-143.37;100.00;62585.38;5051699;28;20445;-75
2022/04/13 00:16:02;;;;;;;5.53;5.03;;;;;;;-143.37;100.00;62585.38;5036316;28;20433;-75
2022/04/13 00:18:38;;;;;;;7.57;5.73;;;;;;;-143.37;100.00;62585.38;5038060;28;20462;-74
2022/04/13 00:21:14;;;;;;;5.90;5.30;;;;;;;-143.37;100.00;62585.38;5066557;28;20430;-74
2022/04/13 00:23:50;;;;;;;5.90;5.27;;;;;;;-143.37;100.00;62585.38;5068638;28;20437;-74
2022/04/13 00:26:27;;;;;;;5.37;4.83;;;;;;;-143.37;100.00;62585.38;5054870;28;20963;-74
2022/04/13 00:29:03;;;;;;;6.70;5.37;;;;;;;-143.37;100.00;62585.38;5072897;28;20441;-74
2022/04/13 00:31:39;;;;;;;6.90;5.97;;;;;;;-143.37;100.00;62585.38;5054021;28;20842;-74
2022/04/13 00:34:15;;;;;;;5.50;4.63;;;;;;;-143.37;100.00;62585.38;5053465;28;20426;-74
2022/04/13 00:36:50;;;;;;;6.77;5.57;;;;;;;-143.37;100.00;62585.38;5053219;28;20438;-74
2022/04/13 00:39:26;;;;;;;6.30;5.20;;;;;;;-143.37;100.00;62585.38;5070971;28;20445;-74
2022/04/13 00:42:05;;;;;;;6.50;5.80;;;;;;;-143.37;100.00;62585.38;5053950;28;20446;-74
2022/04/13 00:44:41;;;;;;;5.70;5.07;;;;;;;-143.37;100.00;62585.38;5067203;28;20884;-74
2022/04/13 00:47:18;;;;;;;7.03;5.70;;;;;;;-143.37;100.00;62585.38;5063334;28;20469;-74
2022/04/13 00:49:54;;;;;;;7.90;5.97;;;;;;;-143.37;100.00;62585.38;5065254;28;20489;-74
2022/04/13 00:52:31;;;;;;;6.20;5.57;;;;;;;-143.37;100.00;62585.38;5069291;28;20442;-74
2022/04/13 00:55:09;;;;;;;7.23;5.50;;;;;;;-143.37;100.00;62585.38;5065145;28;20436;-74
2022/04/13 00:57:47;;;;;;;5.40;4.90;;;;;;;-143.37;100.00;62585.38;5035322;28;20451;-74
2022/04/13 01:00:22;;;;;;;5.70;5.07;;;;;;;-143.37;100.00;62585.38;5064582;28;20469;-74
2022/04/13 01:03:01;;;;;;;6.33;5.43;;;;;;;-143.37;100.00;62585.38;5049159;28;20442;-74
2022/04/13 01:05:39;;;;;;;6.77;5.50;;;;;;;-143.37;100.00;62585.38;5049619;28;20473;-74
2022/04/13 01:08:17;;;;;;;5.80;5.20;;;;;;;-143.37;100.00;62585.38;5062103;28;20469;-74
2022/04/13 01:10:52;;;;;;;5.83;5.30;;;;;;;-143.37;100.00;62585.38;5034111;28;20876;-74
2022/04/13 01:13:29;;;;;;;6.20;5.60;;;;;;;-143.37;100.00;62585.38;5067363;28;20476;-74
2022/04/13 01:16:06;;;;;;;5.60;4.83;;;;;;;-143.37;100.00;62585.38;5032675;28;20441;-74
2022/04/13 01:18:41;;;;;;;7.40;5.20;;;;;;;-143.37;100.00;62585.38;5054997;28;20556;-74
2022/04/13 01:21:19;;;;;;;5.83;4.77;;;;;;;-143.37;100.00;62585.38;5066518;28;20533;-74
2022/04/13 01:23:56;;;;;;;5.40;4.80;;;;;;;-143.37;100.00;62585.38;5067140;28;20505;-74
2022/04/13 01:26:35;;;;;;;6.00;5.40;;;;;;;-143.37;100.00;62585.38;5076750;28;20449;-74
2022/04/13 01:29:11;;;;;;;6.03;5.33;;;;;;;-143.37;100.00;62585.38;5070344;28;20939;-74
2022/04/13 01:31:47;;;;;;;6.80;5.60;;;;;;;-143.37;100.00;62585.38;5067354;28;20437;-74
2022/04/13 01:34:23;;;;;;;7.03;4.77;;;;;;;-143.37;100.00;62585.38;5069153;28;20449;-74
2022/04/13 01:36:59;;;;;;;6.47;5.10;;;;;;;-143.37;100.00;62585.38;5054129;28;20449;-75
2022/04/13 01:39:36;;;;;;;5.90;5.13;;;;;;;-143.37;100.00;62585.38;5053263;28;20796;-74
2022/04/13 01:42:12;;;;;;;6.97;5.67;;;;;;;-143.37;100.00;62585.38;5065652;28;20470;-74
2022/04/13 01:44:48;;;;;;;5.33;4.63;;;;;;;-143.37;100.00;62585.38;5035553;28;20441;-75
2022/04/13 01:47:23;;;;;;;6.33;5.03;;;;;;;-143.37;100.00;62585.38;5066496;28;20482;-74
2022/04/13 01:50:02;;;;;;;5.97;5.37;;;;;;;-143.37;100.00;62585.38;5043485;28;20450;-74
2022/04/13 01:52:37;;;;;;;6.10;5.50;;;;;;;-143.37;100.00;62585.38;5064292;28;20435;-74
2022/04/13 01:55:15;;;;;;;6.80;5.50;;;;;;;-143.37;100.00;62585.38;5063950;28;20830;-74
2022/04/13 01:57:51;;;;;;;6.83;5.70;;;;;;;-143.37;100.00;62585.38;5067872;28;20425;-76
2022/04/13 02:00:28;;;;;;;6.47;5.50;;;;;;;-143.37;100.00;62585.38;5064817;28;20438;-74
2022/04/13 02:03:03;;;;;;;5.83;5.27;;;;;;;-143.37;100.00;62585.38;5069034;28;20442;-74
2022/04/13 02:05:39;;;;;;;7.70;5.70;;;;;;;-143.37;100.00;62585.38;5064358;28;20433;-74
2022/04/13 02:08:15;;;;;;;8.07;6.67;;;;;;;-143.37;100.00;62585.38;5065906;28;20499;-74
2022/04/13 02:10:52;;;;;;;7.93;5.37;;;;;;;-143.37;100.00;62585.38;5068234;28;20437;-74
2022/04/13 02:13:28;;;;;;;7.20;6.47;;;;;;;-143.37;100.00;62585.38;5052861;28;20450;-74
2022/04/13 02:16:05;;;;;;;7.07;6.00;;;;;;;-143.37;100.00;62585.38;5051978;28;20911;-74
2022/04/13 02:18:41;;;;;;;5.67;5.07;;;;;;;-143.37;100.00;62585.38;5063151;28;20810;-74
2022/04/13 02:21:17;;;;;;;5.70;5.20;;;;;;;-143.37;100.00;62585.38;5080318;28;20935;-75
2022/04/13 02:23:56;;;;;;;5.33;4.87;;;;;;;-143.37;100.00;62585.38;5060016;28;20450;-75
2022/04/13 02:26:33;;;;;;;5.83;5.23;;;;;;;-143.37;100.00;62585.38;5051187;28;20528;-74
2022/04/13 02:29:08;;;;;;;7.63;5.20;;;;;;;-143.37;100.00;62585.38;5071690;28;20802;-74
2022/04/13 02:31:44;;;;;;;5.90;5.10;;;;;;;-143.37;100.00;62585.38;5066157;28;20446;-75
2022/04/13 02:34:19;;;;;;;5.73;5.03;;;;;;;-143.37;100.00;62585.38;5066768;28;20520;-75
2022/04/13 02:36:56;;;;;;;6.50;4.80;;;;;;;-143.37;100.00;62585.38;5083217;28;20433;-76
2022/04/13 02:39:32;;;;;;;5.57;5.00;;;;;;;-143.37;100.00;62585.38;5067270;28;20429;-76
2022/04/13 02:42:12;;;;;;;6.50;4.80;;;;;;;-143.37;100.00;62585.38;5067576;28;20437;-75
2022/04/13 02:44:47;;;;;;;5.60;4.87;;;;;;;-143.37;100.00;62585.38;5070082;28;20456;-75
2022/04/13 02:47:23;;;;;;;6.10;4.57;;;;;;;-143.37;100.00;62585.38;5071787;28;20442;-75
2022/04/13 02:50:00;;;;;;;5.37;4.87;;;;;;;-143.37;100.00;62585.38;5056171;28;20422;-75
2022/04/13 02:52:35;;;;;;;6.23;4.97;;;;;;;-143.37;100.00;62585.38;5055878;28;20445;-75
2022/04/13 02:55:12;;;;;;;9.70;5.20;;;;;;;-143.37;100.00;62585.38;5056259;28;20448;-75
2022/04/13 02:57:49;;;;;;;4.37;3.97;;;;;;;-143.37;100.00;62585.38;5069405;28;20429;-75
2022/04/13 03:00:25;;;;;;;5.73;4.23;;;;;;;-143.37;100.00;62585.38;5070993;28;20844;-74
2022/04/13 03:03:03;;;;;;;5.53;4.30;;;;;;;-143.37;100.00;62585.38;5071594;28;20434;-74
2022/04/13 03:05:39;;;;;;;6.40;5.10;;;;;;;-143.37;100.00;62585.38;5068023;28;20446;-74
2022/04/13 03:08:14;;;;;;;6.83;5.00;;;;;;;-143.37;100.00;62585.38;5055768;28;20501;-75
2022/04/13 03:10:50;;;;;;;6.23;4.40;;;;;;;-143.37;100.00;62585.38;5070240;28;20442;-75
2022/04/13 03:13:27;;;;;;;6.57;5.17;;;;;;;-143.37;100.00;62585.38;5055130;28;20540;-75
2022/04/13 03:16:02;;;;;;;6.27;5.53;;;;;;;-143.37;100.00;62585.38;5070711;28;20458;-75
2022/04/13 03:18:38;;;;;;;6.27;4.80;;;;;;;-143.37;100.00;62585.38;5056173;28;20458;-74
2022/04/13 03:21:14;;;;;;;6.43;4.97;;;;;;;-143.37;100.00;62585.38;5056016;28;20783;-75
2022/04/13 03:23:50;;;;;;;5.17;4.67;;;;;;;-143.37;100.00;62585.38;5035462;28;20438;-75
2022/04/13 03:26:26;;;;;;;6.87;5.00;;;;;;;-143.37;100.00;62585.38;5053452;28;20426;-74
2022/04/13 03:29:03;;;;;;;7.40;4.80;;;;;;;-143.37;100.00;62585.38;5036812;28;20476;-74
2022/04/13 03:31:39;;;;;;;8.27;5.57;;;;;;;-143.37;100.00;62585.38;5070516;28;20441;-75
2022/04/13 03:34:19;;;;;;;5.40;4.90;;;;;;;-143.37;100.00;62585.38;5052189;28;20447;-75
2022/04/13 03:36:55;;;;;;;7.17;5.50;;;;;;;-143.37;100.00;62585.38;5070882;28;20449;-74
2022/04/13 03:39:30;;;;;;;6.57;5.40;;;;;;;-143.37;100.00;62585.38;5055318;28;20449;-75
2022/04/13 03:42:07;;;;;;;6.20;5.13;;;;;;;-143.37;100.00;62585.38;5068393;28;20556;-74
2022/04/13 03:44:44;;;;;;;6.83;4.67;;;;;;;-143.37;100.00;62585.38;5051222;28;20434;-74
2022/04/13 03:47:19;;;;;;;5.80;5.20;;;;;;;-143.37;100.00;62585.38;5055892;28;20446;-74
2022/04/13 03:49:55;;;;;;;6.00;5.40;;;;;;;-143.37;100.00;62585.38;5054731;28;20426;-75
2022/04/13 03:52:32;;;;;;;7.97;6.00;;;;;;;-143.37;100.00;62585.38;5070818;28;20798;-75
2022/04/13 03:55:10;;;;;;;7.77;5.47;;;;;;;-143.37;100.00;62585.38;5048369;28;20481;-75
2022/04/13 03:57:48;;;;;;;7.17;6.00;;;;;;;-143.37;100.00;62585.38;5042953;28;20466;-74
2022/04/13 04:00:26;;;;;;;6.13;5.53;;;;;;;-143.37;100.00;62585.38;5035522;28;20715;-75
2022/04/13 04:03:02;;;;;;;7.33;6.13;;;;;;;-143.37;100.00;62585.38;5032135;28;20468;-75
2022/04/13 04:05:38;;;;;;;5.80;5.20;;;;;;;-143.37;100.00;62585.38;5031006;28;20543;-75
2022/04/13 04:08:13;;;;;;;6.53;5.83;;;;;;;-143.37;100.00;62585.38;5064927;28;20718;-74
2022/04/13 04:10:49;;;;;;;8.63;5.80;;;;;;;-143.37;100.00;62585.38;5065161;28;20773;-76
2022/04/13 04:13:26;;;;;;;8.40;6.50;;;;;;;-143.37;100.00;62585.38;5063965;28;20458;-73
2022/04/13 04:16:04;;;;;;;5.77;5.17;;;;;;;-143.37;100.00;62585.38;5064927;28;20488;-76
2022/04/13 04:18:39;;;;;;;7.17;5.70;;;;;;;-143.37;100.00;62585.38;5034918;28;20535;-76
2022/04/13 04:21:16;;;;;;;7.37;5.30;;;;;;;-143.37;100.00;62585.38;5065775;28;20577;-76
2022/04/13 04:23:51;;;;;;;8.63;6.40;;;;;;;-143.37;100.00;62585.38;5048904;28;20449;-77
2022/04/13 04:26:28;;;;;;;7.20;6.50;;;;;;;-143.37;100.00;62585.38;5035222;28;20441;-76
2022/04/13 04:29:04;;;;;;;8.93;5.87;;;;;;;-143.37;100.00;62585.38;5051479;28;20462;-76
2022/04/13 04:31:54;;;;;;;6.87;5.83;;;;;;;-143.37;100.00;62585.38;5029644;28;20441;-76
2022/04/13 04:34:33;;;;;;;7.60;5.47;;;;;;;-143.37;100.00;62585.38;5046411;28;20525;-76
2022/04/13 04:37:08;;;;;;;6.47;5.87;;;;;;;-143.37;100.00;62585.38;5036540;28;20444;-74
2022/04/13 04:39:44;;;;;;;6.10;4.80;;;;;;;-143.37;100.00;62585.38;5037486;28;20469;-76
2022/04/13 04:42:20;;;;;;;6.13;5.53;;;;;;;-143.37;100.00;62585.38;5052236;28;20491;-76
2022/04/13 04:44:57;;;;;;;6.37;5.50;;;;;;;-143.37;100.00;62585.38;5037122;28;20862;-76
2022/04/13 04:47:36;;;;;;;8.00;5.73;;;;;;;-143.37;100.00;62585.38;5035835;28;20442;-76
2022/04/13 04:50:12;;;;;;;7.17;5.40;;;;;;;-143.37;100.00;62585.38;5066639;28;20439;-76
2022/04/13 04:52:48;;;;;;;7.20;5.80;;;;;;;-143.37;100.00;62585.38;5052883;28;20496;-76
2022/04/13 04:55:23;;;;;;;6.90;5.50;;;;;;;-143.37;100.00;62585.38;5067647;28;20516;-76
2022/04/13 04:58:00;;;;;;;7.10;5.57;;;;;;;-143.37;100.00;62585.38;5068516;28;20438;-76
2022/04/13 05:00:36;;;;;;;6.50;5.63;;;;;;;-143.37;100.00;62585.38;5050337;28;20441;-76
2022/04/13 05:03:19;;;;;;;8.30;5.87;;;;;;;-143.37;100.00;62585.38;5069972;28;20445;-75
2022/04/13 05:05:54;;;;;;;6.30;5.50;;;;;;;-143.37;100.00;62585.38;5069314;28;20438;-76
2022/04/13 05:08:30;;;;;;;7.10;5.80;;;;;;;-143.37;100.00;62585.38;5069469;28;20469;-76
2022/04/13 05:11:05;;;;;;;5.60;5.10;;;;;;;-143.37;100.00;62585.38;5068961;28;20438;-75
2022/04/13 05:13:41;;;;;;;6.20;5.60;;;;;;;-143.37;100.00;62585.38;5054391;28;20450;-75
2022/04/13 05:16:17;;;;;;;5.93;5.27;;;;;;;-143.37;100.00;62585.38;5059885;28;20438;-76
2022/04/13 05:18:54;;;;;;;6.50;5.67;;;;;;;-143.37;100.00;62585.38;5066207;28;20461;-76
2022/04/13 05:21:29;;;;;;;6.87;6.13;;;;;;;-143.37;100.00;62585.38;5053887;28;20481;-76
2022/04/13 05:24:06;;;;;;;8.87;7.07;;;;;;;-143.37;100.00;62585.38;5068728;28;20450;-76
2022/04/13 05:26:41;;;;;;;9.53;6.63;;;;;;;-143.37;100.00;62585.38;5052463;28;20818;-77
2022/04/13 05:29:17;;;;;;;6.90;6.20;;;;;;;-143.37;100.00;62585.38;5050689;28;20457;-76
2022/04/13 05:31:53;;;;;;;7.60;6.13;;;;;;;-143.37;100.00;62585.38;5066653;28;20444;-76
2022/04/13 05:34:31;;;;;;;7.57;6.77;;;;;;;-143.37;100.00;62585.38;5061440;28;20440;-76
2022/04/13 05:37:06;;;;;;;11.00;7.13;;;;;;;-143.37;100.00;62585.38;5066201;28;20457;-75
2022/04/13 05:39:45;;;;;;;8.93;6.40;;;;;;;-143.37;100.00;62585.38;5066815;28;20433;-75
2022/04/13 05:42:23;;;;;;;8.27;7.20;;;;;;;-143.37;100.00;62585.38;5067657;28;20536;-75
2022/04/13 05:44:58;;;;;;;8.57;7.67;;;;;;;-143.37;100.00;62585.38;5051439;28;20443;-75
2022/04/13 05:47:34;;;;;;;8.50;7.40;;;;;;;-143.37;100.00;62585.38;5047300;28;20488;-75
2022/04/13 05:50:12;;;;;;;7.80;7.00;;;;;;;-143.37;100.00;62585.38;5064045;28;20454;-75
2022/04/13 05:52:47;;;;;;;9.00;7.27;;;;;;;-143.37;100.00;62585.38;5050545;28;20785;-75
2022/04/13 05:55:23;;;;;;;7.50;6.70;;;;;;;-143.37;100.00;62585.38;5049918;28;20436;-74
2022/04/13 05:57:59;;;;;;;8.53;7.67;;;;;;;-143.37;100.00;62585.38;5033621;28;20448;-75
2022/04/13 06:00:35;;;;;;;14.60;7.30;;;;;;;-143.37;100.00;62585.38;5068940;28;20426;-75
2022/04/13 06:03:11;;;;;;;8.53;7.20;;;;;;;-143.37;100.00;62585.38;5053784;28;20450;-75
2022/04/13 06:05:48;;;;;;;8.00;7.20;;;;;;;-143.37;100.00;62585.38;5039126;28;20433;-76
2022/04/13 06:08:23;;;;;;;8.43;7.60;;;;;;;-143.37;100.00;62585.38;5054759;28;20453;-75
2022/04/13 06:11:02;;;;;;;7.40;6.70;;;;;;;-143.37;100.00;62585.38;5072531;28;20528;-75
2022/04/13 06:13:38;;;;;;;8.40;7.60;;;;;;;-143.37;100.00;62585.38;5072573;28;20441;-74
2022/04/13 06:16:14;;;;;;;11.03;7.60;;;;;;;-143.37;100.00;62585.38;5055159;28;20533;-75
2022/04/13 06:18:50;;;;;;;8.27;7.47;;;;;;;-143.37;100.00;62585.38;5068890;28;21070;-75
2022/04/13 06:21:27;;;;;;;7.40;6.70;;;;;;;-143.37;100.00;62585.38;5073421;28;20440;-75
2022/04/13 06:24:03;;;;;;;8.40;7.20;;;;;;;-143.37;100.00;62585.38;5071020;28;20468;-75
2022/04/13 06:26:39;;;;;;;7.63;6.93;;;;;;;-143.37;100.00;62585.38;5039551;28;20437;-75
2022/04/13 06:29:14;;;;;;;8.90;7.20;;;;;;;-143.37;100.00;62585.38;5054191;28;20849;-75
2022/04/13 06:31:50;;;;;;;7.20;6.40;;;;;;;-143.37;100.00;62585.38;5034076;28;20422;-75
2022/04/13 06:34:26;;;;;;;6.80;6.10;;;;;;;-143.37;100.00;62585.38;5054379;28;20839;-75
2022/04/13 06:37:03;;;;;;;7.60;6.80;;;;;;;-143.37;100.00;62585.38;5071553;28;20556;-75
2022/04/13 06:39:39;;;;;;;7.77;6.60;;;;;;;-143.37;100.00;62585.38;5052545;28;20430;-75
2022/04/13 06:42:14;;;;;;;10.77;6.27;;;;;;;-143.37;100.00;62585.38;5052370;28;20457;-75
2022/04/13 06:44:50;;;;;;;7.43;6.63;;;;;;;-143.37;100.00;62585.38;5046001;28;20453;-75
2022/04/13 06:47:26;;;;;;;8.53;5.80;;;;;;;-143.37;100.00;62585.38;5050660;28;20453;-75
2022/04/13 06:50:02;;;;;;;7.70;7.00;;;;;;;-143.37;100.00;62585.38;5069418;28;20465;-75
2022/04/13 06:52:40;;;;;;;7.20;6.20;;;;;;;-143.37;100.00;62585.38;5067933;28;20786;-75
2022/04/13 06:55:16;;;;;;;8.47;6.60;;;;;;;-143.37;100.00;62585.38;5066935;28;20437;-75
2022/04/13 06:57:51;;;;;;;7.60;6.90;;;;;;;-143.37;100.00;62585.38;5051016;28;20453;-75
2022/04/13 07:00:28;;;;;;;7.33;6.30;;;;;;;-143.37;100.00;62585.38;5068632;28;20469;-75
2022/04/13 07:03:06;;;;;;;7.27;6.53;;;;;;;-143.37;100.00;62585.38;5067774;28;20437;-75
2022/04/13 07:05:41;;;;;;;7.93;7.07;;;;;;;-143.37;100.00;62585.38;5035463;28;20461;-75
2022/04/13 07:08:18;;;;;;;9.33;6.83;;;;;;;-143.37;100.00;62585.38;5051037;28;20438;-75
2022/04/13 07:10:53;;;;;;;8.40;6.47;;;;;;;-143.37;100.00;62585.38;5053231;28;20951;-75
2022/04/13 07:13:29;;;;;;;8.80;5.97;;;;;;;-143.37;100.00;62585.38;5037536;28;20453;-75
2022/04/13 07:16:05;;;;;;;7.00;6.30;;;;;;;-143.37;100.00;62585.38;5057235;28;20465;-75
2022/04/13 07:18:40;;;;;;;7.50;6.37;;;;;;;-143.37;100.00;62585.38;5050844;28;20502;-75
2022/04/13 07:21:16;;;;;;;13.07;7.07;;;;;;;-143.37;100.00;62585.38;5058650;28;20790;-75
2022/04/13 07:23:53;;;;;;;6.90;6.20;;;;;;;-143.37;100.00;62585.38;5066571;28;20775;-75
2022/04/13 07:26:28;;;;;;;6.73;5.70;;;;;;;-143.37;100.00;62585.38;5068158;28;22915;-75
2022/04/13 07:29:04;;;;;;;6.27;5.67;;;;;;;-143.37;100.00;62585.38;5049851;28;20465;-75
2022/04/13 07:31:40;;;;;;;8.40;6.23;;;;;;;-143.37;100.00;62585.38;5053795;28;20426;-75
2022/04/13 07:34:16;;;;;;;7.60;5.90;;;;;;;-143.37;100.00;62585.38;5044308;28;20481;-76
2022/04/13 07:36:52;;;;;;;7.70;6.10;;;;;;;-143.37;100.00;62585.38;5062817;28;20803;-75
2022/04/13 07:39:29;;;;;;;17.83;7.07;;;;;;;-143.37;100.00;62585.38;5068738;28;20477;-75
2022/04/13 07:42:05;;;;;;;6.90;6.20;;;;;;;-143.37;100.00;62585.38;5080779;28;20446;-76
2022/04/13 07:44:40;;;;;;;9.50;6.90;;;;;;;-143.37;100.00;62585.38;5064163;28;20430;-76
2022/04/13 07:47:16;;;;;;;7.73;7.03;;;;;;;-143.37;100.00;62585.38;5050431;28;20441;-76
2022/04/13 07:49:51;;;;;;;7.70;6.70;;;;;;;-143.37;100.00;62585.38;5051151;28;20489;-76
2022/04/13 07:52:27;;;;;;;7.87;7.10;;;;;;;-143.37;100.00;62585.38;5050006;28;20436;-76
2022/04/13 07:55:06;;;;;;;9.63;7.23;;;;;;;-143.37;100.00;62585.38;5051360;28;20457;-75
2022/04/13 07:57:42;;;;;;;6.93;6.23;;;;;;;-143.37;100.00;62585.38;5032507;28;20804;-75
2022/04/13 08:00:18;;;;;;;7.37;6.37;;;;;;;-143.37;100.00;62585.38;5065055;28;20461;-76
2022/04/13 08:02:54;;;;;;;7.30;6.10;;;;;;;-143.37;100.00;62585.38;5047787;28;20463;-76
2022/04/13 08:05:32;;;;;;;7.10;6.40;;;;;;;-143.37;100.00;62585.38;5056071;28;20454;-76
2022/04/13 08:08:08;;;;;;;7.40;6.33;;;;;;;-143.37;100.00;62585.38;5082671;28;20637;-77
2022/04/13 08:10:45;;;;;;;6.20;5.70;;;;;;;-143.37;100.00;62585.38;5051136;28;20465;-76
2022/04/13 08:13:21;;;;;;;7.30;6.07;;;;;;;-143.37;100.00;62585.38;5064215;28;20453;-76
2022/04/13 08:15:57;;;;;;;6.20;5.60;;;;;;;-143.37;100.00;62585.38;5065698;28;20453;-76
2022/04/13 08:18:32;;;;;;;6.77;6.10;;;;;;;-143.37;100.00;62585.38;5047781;28;20473;-76
2022/04/13 08:21:08;;;;;;;5.60;5.10;;;;;;;-143.37;100.00;62585.38;5051851;28;20430;-76
2022/04/13 08:23:46;;;;;;;5.00;4.50;;;;;;;-143.37;100.00;62585.38;5048359;28;21983;-76
2022/04/13 08:26:23;;;;;;;5.97;4.60;;;;;;;-143.37;100.00;62585.38;5037659;28;20449;-76
2022/04/13 08:28:58;;;;;;;5.40;4.40;;;;;;;-143.37;100.00;62585.38;5050529;28;20888;-76
2022/04/13 08:31:35;;;;;;;4.70;4.20;;;;;;;-143.37;100.00;62585.38;5067783;28;20438;-76
2022/04/13 08:34:11;;;;;;;4.80;3.77;;;;;;;-143.37;100.00;62585.38;5066231;28;21931;-76
2022/04/13 08:36:46;;;;;;;4.13;3.20;;;;;;;-143.37;100.00;62585.38;5051886;28;20429;-76
2022/04/13 08:39:22;;;;;;;6.23;3.73;;;;;;;-143.37;100.00;62585.38;5052049;28;20544;-76
2022/04/13 08:42:07;;;;;;;4.10;3.60;;;;;;;-143.37;100.00;62585.38;5066894;28;20921;-76
2022/04/13 08:44:50;;;;;;;5.40;3.90;;;;;;;-143.37;100.00;62585.38;5051345;28;20474;-76
2022/04/13 08:47:37;;;;;;;5.30;4.80;;;;;;;-143.37;100.00;62585.38;5033693;28;20457;-75
2022/04/13 08:50:13;;;;;;;7.70;4.00;;;;;;;-143.37;100.00;62585.38;5050043;28;20560;-75
2022/04/13 08:52:52;;;;;;;5.17;4.60;;;;;;;-143.37;100.00;62585.38;5048568;28;20536;-75
2022/04/13 08:55:29;;;;;;;5.83;4.30;;;;;;;-143.37;100.00;62585.38;5034042;28;20939;-75
2022/04/13 08:58:10;;;;;;;5.20;3.67;;;;;;;-143.37;100.00;62585.38;5063610;28;20719;-75
2022/04/13 09:00:49;;;;;;;3.77;3.27;;;;;;;-143.37;100.00;62585.38;5064527;28;20427;-75
2022/04/13 09:03:28;;;;;;;4.17;3.00;;;;;;;-143.37;100.00;62585.38;5079479;28;20958;-75
2022/04/13 09:06:05;;;;;;;3.97;3.57;;;;;;;-143.37;100.00;62585.38;5060534;28;20763;-75
2022/04/13 09:08:49;;;;;;;4.70;3.53;;;;;;;-143.37;100.00;62585.38;5035355;28;20454;-75
2022/04/13 09:11:25;;;;;;;5.00;3.27;;;;;;;-143.37;100.00;62585.38;5065833;28;20453;-75
2022/04/13 09:14:04;;;;;;;5.87;3.23;;;;;;;-143.37;100.00;62585.38;5044105;28;20820;-75
2022/04/13 09:16:39;;;;;;;4.07;3.27;;;;;;;-143.37;100.00;62585.38;5063930;28;20431;-75
2022/04/13 09:19:15;;;;;;;4.27;2.93;;;;;;;-143.37;100.00;62585.38;5050441;28;20466;-75
2022/04/13 09:21:51;;;;;;;6.40;3.00;;;;;;;-143.37;100.00;62585.38;5045088;28;20434;-76
2022/04/13 09:24:27;;;;;;;6.40;3.10;;;;;;;-143.37;100.00;62585.38;5076779;28;20456;-75
2022/04/13 09:27:04;;;;;;;2.77;2.53;;;;;;;-143.37;100.00;62585.38;5066327;28;20502;-75
2022/04/13 09:29:42;;;;;;;2.70;2.50;;;;;;;-143.37;100.00;62585.38;5059652;28;20820;-75
2022/04/13 09:32:18;;;;;;;4.63;2.93;;;;;;;-143.37;100.00;62585.38;5048497;28;20442;-75
2022/04/13 09:34:54;;;;;;;2.60;2.30;;;;;;;-143.37;100.00;62585.38;5062850;28;20442;-75
2022/04/13 09:37:30;;;;;;;3.17;2.77;;;;;;;-143.37;100.00;62585.38;5042386;28;20524;-75
2022/04/13 09:40:06;;;;;;;4.40;2.37;;;;;;;-143.37;100.00;62585.38;5074614;28;20936;-75
2022/04/13 09:42:43;;;;;;;4.13;2.67;;;;;;;-143.37;100.00;62585.38;5062826;28;20434;-75
2022/04/13 09:45:21;;;;;;;3.40;2.57;;;;;;;-143.37;100.00;62585.38;5067120;28;20452;-75
2022/04/13 09:47:57;;;;;;;6.30;2.90;;;;;;;-143.37;100.00;62585.38;5042223;28;20458;-75
2022/04/13 09:50:33;;;;;;;7.93;2.80;;;;;;;-143.37;100.00;62585.38;5046594;28;20461;-75
2022/04/13 09:53:09;;;;;;;5.40;2.57;;;;;;;-143.37;100.00;62585.38;5056073;28;20485;-75
2022/04/13 09:55:46;;;;;;;3.20;2.57;;;;;;;-143.37;100.00;62585.38;5058448;28;20533;-75
2022/04/13 09:58:24;;;;;;;6.10;3.43;;;;;;;-143.37;100.00;62585.38;5061836;28;20438;-75
2022/04/13 10:01:03;;;;;;;3.20;2.90;;;;;;;-143.37;100.00;62585.38;5079783;28;20542;-75
2022/04/13 10:03:53;;;;;;;5.93;3.17;;;;;;;-143.37;100.00;62585.38;5065855;28;20473;-75
2022/04/13 10:06:29;;;;;;;4.00;2.90;;;;;;;-143.37;100.00;62585.38;5050942;28;21091;-75
2022/04/13 10:09:08;;;;;;;3.30;2.93;;;;;;;-143.37;100.00;62585.38;5048077;28;20442;-74
2022/04/13 10:11:58;;;;;;;7.60;3.20;;;;;;;-143.37;100.00;62585.38;5064559;28;20487;-75
2022/04/13 10:14:35;;;;;;;4.90;2.33;;;;;;;-143.37;100.00;62585.38;5028251;28;20465;-75
2022/04/13 10:17:13;;;;;;;4.43;2.97;;;;;;;-143.37;100.00;62585.38;5051255;28;20454;-75
2022/04/13 10:20:02;;;;;;;7.37;3.37;;;;;;;-143.37;100.00;62585.38;5031449;28;20481;-75
2022/04/13 10:22:57;;;;;;;6.40;3.20;;;;;;;-143.37;100.00;62585.38;5028602;28;20925;-75
2022/04/13 10:25:35;;;;;;;4.40;3.30;;;;;;;-143.37;100.00;62585.38;5044338;28;20446;-74
2022/04/13 10:28:12;;;;;;;7.90;3.10;;;;;;;-143.37;100.00;62585.38;5038065;28;20453;-74
2022/04/13 10:30:48;;;;;;;4.50;2.80;;;;;;;-143.37;100.00;62585.38;5064644;28;20501;-75
2022/04/13 10:33:25;;;;;;;3.87;2.50;;;;;;;-143.37;100.00;62585.38;5062475;28;20924;-76
2022/04/13 10:36:01;;;;;;;3.63;2.90;;;;;;;-143.37;100.00;62585.38;5049495;28;20943;-75
2022/04/13 10:38:37;;;;;;;4.40;2.90;;;;;;;-143.37;100.00;62585.38;5066641;28;20528;-75
2022/04/13 10:41:16;;;;;;;5.10;3.10;;;;;;;-143.37;100.00;62585.38;5065509;28;20438;-75
2022/04/13 10:43:52;;;;;;;3.73;2.67;;;;;;;-143.37;100.00;62585.38;5048883;28;20778;-75
2022/04/13 10:46:29;;;;;;;7.00;2.40;;;;;;;-143.37;100.00;62585.38;5049321;28;20437;-75
2022/04/13 10:49:10;;;;;;;5.97;3.87;;;;;;;-143.37;100.00;62585.38;5052514;28;20446;-75
2022/04/13 10:51:46;;;;;;;5.73;3.20;;;;;;;-143.37;100.00;62585.38;5055101;28;20483;-75
2022/04/13 10:54:26;;;;;;;4.23;2.80;;;;;;;-143.37;100.00;62585.38;5053583;28;20440;-75
2022/04/13 10:57:03;;;;;;;3.10;2.63;;;;;;;-143.37;100.00;62585.38;5052756;28;20549;-74
2022/04/13 10:59:45;;;;;;;4.60;2.70;;;;;;;-143.37;100.00;62585.38;5052986;28;20554;-74
2022/04/13 11:02:31;;;;;;;7.13;3.77;;;;;;;-143.37;100.00;62585.38;5067963;28;20450;-75
2022/04/13 11:05:08;;;;;;;4.00;3.10;;;;;;;-143.37;100.00;62585.38;5070745;28;20537;-75
2022/04/13 11:07:44;;;;;;;5.00;2.97;;;;;;;-143.37;100.00;62585.38;5087013;28;20465;-74
2022/04/13 11:10:21;;;;;;;11.60;3.13;;;;;;;-143.37;100.00;62585.38;5037894;28;20468;-75
2022/04/13 11:12:57;;;;;;;4.57;2.90;;;;;;;-143.37;100.00;62585.38;5065176;28;20447;-75
2022/04/13 11:15:38;;;;;;;3.40;2.73;;;;;;;-143.37;100.00;62585.38;5066471;28;20434;-75
2022/04/13 11:18:14;;;;;;;5.67;2.93;;;;;;;-143.37;100.00;62585.38;5067106;28;20450;-74
2022/04/13 11:21:08;;;;;;;5.03;3.37;;;;;;;-143.37;100.00;62585.38;5040480;28;20509;-75
2022/04/13 11:23:48;;;;;;;7.37;3.27;;;;;;;-143.37;100.00;62585.38;5052356;28;20752;-76
2022/04/13 11:26:48;;;;;;;4.13;3.30;;;;;;;-143.37;100.00;62585.38;5047452;28;20508;-75
2022/04/13 11:29:24;;;;;;;4.10;3.10;;;;;;;-143.37;100.00;62585.38;5054163;28;20791;-75
2022/04/13 11:32:09;;;;;;;4.83;3.40;;;;;;;-143.37;100.00;62585.38;5069567;28;20998;-75
2022/04/13 11:34:48;;;;;;;5.60;3.50;;;;;;;-143.37;100.00;62585.38;5065724;28;20471;-75
2022/04/13 11:37:26;;;;;;;5.17;3.70;;;;;;;-143.37;100.00;62585.38;5051755;28;20440;-75
2022/04/13 11:40:05;;;;;;;5.67;3.67;;;;;;;-143.37;100.00;62585.38;5033943;28;20441;-75
2022/04/13 11:43:02;;;;;;;4.37;3.30;;;;;;;-143.37;100.00;62585.38;5056286;28;20434;-75
2022/04/13 11:45:53;;;;;;;6.23;3.30;;;;;;;-143.37;100.00;62585.38;5053963;28;20811;-75
2022/04/13 11:48:33;;;;;;;7.10;3.33;;;;;;;-143.37;100.00;62585.38;5033242;28;20464;-75
2022/04/13 11:51:29;;;;;;;6.43;3.30;;;;;;;-143.37;100.00;62585.38;5054674;28;20545;-76
2022/04/13 11:54:10;;;;;;;4.53;3.03;;;;;;;-143.37;100.00;62585.38;5051248;28;20445;-76